Flight Track Log - Related Links

Times and Time Zones

All times are in EDT time to prevent confusion due to time zone crossing. See the N34AG flight status page for this flight to view local times or setup timezone preferences in your user account.

Time Position Orientation Groundspeed Altitude Reporting Facility
EDT Latitude Longitude Course Direction KTS MPH feet Rate Location/Type
Sun 02:14:03 PM 36.1333 -86.6833 39° Northeast 127 146 1,000  Level Nashville TRACON
Sun 02:14:52 PM 36.1500 -86.6667 39° Northeast 119 137 2,100 990 Climbing Nashville TRACON
Sun 02:15:40 PM 36.1833 -86.6667 360° North 127 146 2,600 722 Climbing Nashville TRACON
Sun 02:16:40 PM 36.2167 -86.6833 338° Northwest 119 137 3,400 700 Climbing Nashville TRACON
Sun 02:17:40 PM 36.2500 -86.6833 360° North 126 145 4,000 550 Climbing Nashville TRACON
Sun 02:18:40 PM 36.3000 -86.6833 360° North 166 191 4,500 650 Climbing Nashville TRACON
Sun 02:19:40 PM 36.3333 -86.7000 338° Northwest 140 161 5,300 714 Climbing Nashville TRACON
Sun 02:20:46 PM 36.3667 -86.7000 360° North 129 148 6,000 810 Climbing Nashville TRACON
Sun 02:21:46 PM 36.4000 -86.7000 360° North 125 144 7,000 950 Climbing Nashville TRACON
Sun 02:22:46 PM 36.4333 -86.7000 360° North 108 124 7,900 824 Climbing Nashville TRACON
Sun 02:23:28 PM 36.4500 -86.7000 360° North 106 122 8,400 789 Climbing Nashville TRACON
Sun 02:24:40 PM 36.5000 -86.7000 360° North 113 130 9,400 804 Climbing Nashville TRACON
Sun 02:25:20 PM 36.5197 -86.7111 336° Northwest 116 133 9,900 720 Climbing Memphis Center
Sun 02:26:20 PM 36.5511 -86.7147 355° North 128 147 10,600 700 Climbing Memphis Center
Sun 02:27:20 PM 36.5867 -86.7158 359° North 128 147 11,300 650 Climbing Memphis Center
Sun 02:28:20 PM 36.6200 -86.7194 355° North 117 135 11,900 300 Climbing Memphis Center
Sun 02:29:20 PM 36.6597 -86.7253 353° North 132 152 11,900 50 Level Memphis Center
Sun 02:30:20 PM 36.7061 -86.7361 349° North 150 173 12,000 50 Climbing Memphis Center
Sun 02:31:20 PM 36.7522 -86.7444 352° North 162 186 12,000  Level Memphis Center
Sun 02:32:20 PM 36.8003 -86.7528 352° North 162 186 12,000  Level Memphis Center
Sun 02:33:20 PM 36.8442 -86.7611 351° North 162 186 12,000  Level Memphis Center
Sun 02:34:20 PM 36.8861 -86.7697 351° North 162 186 12,000  Level Memphis Center
Sun 02:35:20 PM 36.9322 -86.7806 349° North 162 186 12,000  Level Memphis Center
Sun 02:36:20 PM 36.9806 -86.7861 355° North 162 186 12,000  Level Memphis Center
Sun 02:37:20 PM 37.0308 -86.7969 350° North 162 186 12,000  Level Memphis Center
Sun 02:38:20 PM 37.0769 -86.8053 352° North 162 186 12,000  Level Memphis Center
Sun 02:39:20 PM 37.1208 -86.8136 351° North 162 186 12,000  Level Memphis Center
Sun 02:40:56 PM 37.2022 -86.8269 353° North 171 197 12,000  Level Indianapolis Center
Sun 02:41:58 PM 37.2497 -86.8356 352° North 170 196 12,000 48 Level Indianapolis Center
Sun 02:43:00 PM 37.2964 -86.8442 352° North 169 194 12,100 48 Climbing Indianapolis Center
Sun 02:44:02 PM 37.3444 -86.8528 352° North 172 198 12,100  Level Indianapolis Center
Sun 02:45:03 PM 37.3908 -86.8611 352° North 168 193 12,100  Level Indianapolis Center
Sun 02:46:05 PM 37.4400 -86.8708 351° North 174 200 12,100  Level Indianapolis Center
Sun 02:47:06 PM 37.4878 -86.8794 352° North 173 199 12,100  Level Indianapolis Center
Sun 02:48:08 PM 37.5356 -86.8894 351° North 174 200 12,100  Level Indianapolis Center
Sun 02:49:10 PM 37.5842 -86.8983 352° North 174 200 12,100  Level Indianapolis Center
Sun 02:50:12 PM 37.6322 -86.9078 351° North 175 201 12,100  Level Indianapolis Center
Sun 02:51:13 PM 37.6917 -86.9183 352° North 179 206 12,100  Level Indianapolis Center
Sun 02:52:15 PM 37.7400 -86.9278 351° North 176 203 12,100  Level Indianapolis Center
Sun 02:53:17 PM 37.7886 -86.9369 352° North 174 200 12,100  Level Indianapolis Center
Sun 02:54:18 PM 37.8375 -86.9456 352° North 177 204 12,100  Level Indianapolis Center
Sun 02:55:20 PM 37.8864 -86.9556 351° North 177 204 12,100  Level Indianapolis Center
Sun 02:56:22 PM 37.9344 -86.9644 352° North 175 201 12,100  Level Indianapolis Center
Sun 02:57:23 PM 37.9833 -86.9736 352° North 176 203 12,100  Level Indianapolis Center
Sun 02:58:25 PM 38.0317 -86.9822 352° North 175 201 12,100  Level Indianapolis Center
Sun 02:59:27 PM 38.0800 -86.9919 351° North 175 201 12,100  Level Indianapolis Center
Sun 03:00:29 PM 38.1372 -87.0028 352° North 174 200 12,100  Level Indianapolis Center
Sun 03:01:30 PM 38.1847 -87.0119 351° North 172 198 12,100 -49 Level Indianapolis Center
Sun 03:02:32 PM 38.2331 -87.0214 351° North 174 200 12,000 -48 Descending Indianapolis Center
Sun 03:03:34 PM 38.2811 -87.0308 351° North 175 201 12,000  Level Indianapolis Center
Sun 03:04:35 PM 38.3317 -87.0383 353° North 172 198 12,000  Level Indianapolis Center
Sun 03:05:37 PM 38.3822 -87.0497 350° North 171 197 12,000  Level Indianapolis Center
Sun 03:06:39 PM 38.4297 -87.0586 352° North 172 198 12,000  Level Indianapolis Center
Sun 03:07:41 PM 38.4769 -87.0681 351° North 171 197 12,000  Level Indianapolis Center
Sun 03:08:43 PM 38.5247 -87.0769 352° North 173 199 12,000  Level Indianapolis Center
Sun 03:09:45 PM 38.5717 -87.0864 351° North 170 196 12,000  Level Indianapolis Center
Sun 03:10:47 PM 38.6186 -87.0958 351° North 170 196 12,000  Level Indianapolis Center
Sun 03:11:48 PM 38.6664 -87.1044 352° North 172 198 12,000  Level Indianapolis Center
Sun 03:12:50 PM 38.7133 -87.1131 352° North 170 196 12,000  Level Indianapolis Center
Sun 03:13:52 PM 38.7700 -87.1250 351° North 171 197 12,000  Level Indianapolis Center
Sun 03:14:54 PM 38.8178 -87.1336 352° North 172 198 12,000  Level Indianapolis Center
Sun 03:15:56 PM 38.8647 -87.1433 351° North 171 197 12,000  Level Indianapolis Center
Sun 03:16:58 PM 38.9119 -87.1519 352° North 170 196 12,000  Level Indianapolis Center
Sun 03:18:00 PM 38.9592 -87.1617 351° North 170 196 12,000  Level Indianapolis Center
Sun 03:19:02 PM 39.0069 -87.1708 352° North 172 198 12,000  Level Indianapolis Center
Sun 03:20:04 PM 39.0564 -87.1794 352° North 176 203 12,000  Level Indianapolis Center
Sun 03:21:06 PM 39.1144 -87.1914 351° North 177 204 12,000  Level Indianapolis Center
Sun 03:22:08 PM 39.1550 -87.1989 352° North 176 203 12,000  Level Indianapolis Center
Sun 03:23:10 PM 39.2128 -87.2103 351° North 175 201 12,000  Level Indianapolis Center
Sun 03:24:11 PM 39.2603 -87.2200 351° North 174 200 12,000  Level Indianapolis Center
Sun 03:25:13 PM 39.3086 -87.2297 351° North 175 201 12,000  Level Indianapolis Center
Sun 03:26:15 PM 39.3561 -87.2386 352° North 174 200 12,000  Level Indianapolis Center
Sun 03:27:17 PM 39.4050 -87.2486 351° North 176 203 12,000  Level Indianapolis Center
Sun 03:28:19 PM 39.4522 -87.2572 352° North 174 200 12,000  Level Indianapolis Center
Sun 03:29:21 PM 39.5092 -87.2694 351° North 173 199 12,000  Level Indianapolis Center
Sun 03:30:23 PM 39.5558 -87.2783 352° North 171 197 12,000  Level Indianapolis Center
Sun 03:31:25 PM 39.6031 -87.2881 351° North 172 198 12,000  Level Indianapolis Center
Sun 03:32:27 PM 39.6503 -87.2986 350° North 172 198 12,000  Level Indianapolis Center
Sun 03:33:29 PM 39.6981 -87.3061 353° North 173 199 12,000  Level Indianapolis Center
Sun 03:34:31 PM 39.7447 -87.3153 351° North 170 196 12,000  Level Indianapolis Center
Sun 03:35:33 PM 39.8019 -87.3261 352° North 172 198 12,000  Level Indianapolis Center
Sun 03:36:35 PM 39.8489 -87.3372 350° North 172 198 12,000  Level Indianapolis Center
Sun 03:37:37 PM 39.8950 -87.3464 351° North 170 196 12,000  Level Indianapolis Center
Sun 03:38:39 PM 39.9417 -87.3564 351° North 170 196 12,000  Level Indianapolis Center
Sun 03:39:41 PM 39.9903 -87.3656 352° North 173 199 12,000  Level Indianapolis Center
Sun 03:40:42 PM 40.0372 -87.3753 351° North 173 199 12,000  Level Indianapolis Center
Sun 03:41:44 PM 40.0947 -87.3853 352° North 174 200 12,000  Level Indianapolis Center
Sun 03:42:46 PM 40.1419 -87.3944 352° North 173 199 12,000  Level Indianapolis Center
Sun 03:43:16 PM 40.1608 -87.3986 350° North 172 198 12,000  Level Chicago Center
Sun 03:44:18 PM 40.2078 -87.4094 350° North 172 198 12,000  Level Chicago Center
Sun 03:45:20 PM 40.2653 -87.4028 North 179 206 12,000  Level Chicago Center
Sun 03:46:22 PM 40.3144 -87.3853 15° North 183 211 12,000  Level Chicago Center
Sun 03:47:24 PM 40.3631 -87.3675 16° North 182 209 12,000  Level Chicago Center
Sun 03:48:26 PM 40.4117 -87.3472 18° North 183 211 12,000  Level Chicago Center
Sun 03:49:27 PM 40.4586 -87.3311 15° North 182 209 12,000  Level Chicago Center
Sun 03:50:29 PM 40.5189 -87.3325 359° North 182 209 12,000 -97 Level Chicago Center
Sun 03:51:31 PM 40.5661 -87.3294 North 174 200 11,800 -435 Descending Chicago Center
Sun 03:52:33 PM 40.6206 -87.3269 North 192 221 11,100 -387 Descending Chicago Center
Sun 03:53:35 PM 40.6728 -87.3250 North 191 220 11,000 -48 Descending Chicago Center
Sun 03:54:37 PM 40.7219 -87.3228 North 180 207 11,000  Level Chicago Center
Sun 03:55:39 PM 40.7797 -87.3194 North 174 200 11,000 -48 Level Chicago Center
Sun 03:56:41 PM 40.8275 -87.3164 North 174 200 10,900 -339 Descending Chicago Center
Sun 03:57:43 PM 40.8792 -87.3131 North 184 212 10,300 -435 Descending Chicago Center
Sun 03:58:45 PM 40.9314 -87.3103 North 189 217 10,000 -145 Descending Chicago Center
Sun 03:59:47 PM 40.9797 -87.3092 North 176 203 10,000  Level Chicago Center
Sun 04:00:49 PM 41.0372 -87.3058 North 174 200 10,000 -192 Level Chicago Center
Sun 04:01:52 PM 41.0828 -87.3042 North 170 196 9,600 -816 Descending Chicago Center
Sun 04:02:54 PM 41.1383 -87.2986 North 192 221 8,300 -1,161 Descending Chicago Center
Sun 04:03:56 PM 41.1936 -87.2956 North 196 226 7,200 -1,065 Descending Chicago Center
Sun 04:04:58 PM 41.2483 -87.2931 North 198 228 6,100 -1,161 Descending Chicago Center
Sun 04:06:00 PM 41.3108 -87.2867 North 194 223 4,800 -968 Descending Chicago Center
Sun 04:07:02 PM 41.3606 -87.2797 North 189 217 4,100 -516 Descending Chicago Center
Sun 04:07:33 PM 41.3833 -87.2833 353° North 170 196 4,000  Descending Chicago TRACON
Sun 04:08:33 PM 41.4333 -87.2833 360° North 165 190 4,100  Climbing Chicago TRACON
Sun 04:09:33 PM 41.4833 -87.2833 360° North 167 192 4,000 -50 Descending Chicago TRACON
Sun 04:10:33 PM 41.5167 -87.2667 21° North 168 193 4,000 -150 Level Chicago TRACON
Sun 04:11:33 PM 41.5667 -87.2833 346° North 167 192 3,700 -400 Descending Chicago TRACON
Sun 04:12:33 PM 41.6167 -87.3000 346° North 182 209 3,200 -475 Descending Chicago TRACON
Sun 04:13:14 PM 41.6439 -87.3200 331° Northwest 174 200 2,900 -175 Descending Chicago Center
Sun 04:14:16 PM 41.6878 -87.3472 335° Northwest 176 203 2,900  Level Chicago Center
Sun 04:15:18 PM 41.7283 -87.3750 333° Northwest 172 198 2,900  Level Chicago Center
Sun 04:16:20 PM 41.7794 -87.3994 340° North 167 192 2,900  Level Chicago Center
Sun 04:17:22 PM 41.8236 -87.4181 343° North 167 192 2,900  Level Chicago Center
Sun 04:18:25 PM 41.8664 -87.4394 340° North 166 191 2,900  Level Chicago Center
Sun 04:19:27 PM 41.9083 -87.4614 339° North 164 189 2,900  Level Chicago Center
Sun 04:20:29 PM 41.9517 -87.4800 342° North 165 190 2,900  Level Chicago Center
Sun 04:21:31 PM 42.0022 -87.5058 339° North 163 188 2,900  Level Chicago Center
Sun 04:22:33 PM 42.0442 -87.5286 338° Northwest 163 188 2,900  Level Chicago Center
Sun 04:23:35 PM 42.0833 -87.5667 324° Northwest 162 186 2,900  Level Chicago TRACON
Sun 04:24:35 PM 42.1167 -87.6000 323° Northwest 163 188 2,900  Level Chicago TRACON
Sun 04:25:35 PM 42.1500 -87.6333 323° Northwest 159 183 2,900  Level Chicago TRACON
Sun 04:26:35 PM 42.2000 -87.6500 346° North 151 174 2,900  Level Chicago TRACON
Sun 04:27:35 PM 42.2333 -87.6833 323° Northwest 149 171 2,900  Level Chicago TRACON
Sun 04:28:35 PM 42.2667 -87.7167 324° Northwest 148 170 2,900 -350 Level Chicago TRACON
Sun 04:29:35 PM 42.3000 -87.7333 340° North 162 186 2,200 -500 Descending Chicago TRACON
Sun 04:30:35 PM 42.3500 -87.7667 334° Northwest 155 178 1,900 -100 Descending Chicago TRACON
Sun 04:31:35 PM 42.3833 -87.7833 340° North 143 165 2,000 -100 Climbing Chicago TRACON
Sun 04:32:35 PM 42.4167 -87.8000 340° North 142 163 1,700 -400 Descending Chicago TRACON
Sun 04:33:35 PM 42.4333 -87.8333 304° West 140 161 1,200 -500 Descending Chicago TRACON
Sun 04:35:00 PM 42.4167 -87.8667 North  Level FlightAware Approximate

Login

Don't have an account? Register now (free) for customized features, flight alerts, and more!